sensor_id;sensor_type;location;lat;lon;timestamp;P1;durP1;ratioP1;P2;durP2;ratioP2
69256;SDS011;56376;53.356;-1.748;2023-09-30T00:01:09;3.88;;;1.50;;
69256;SDS011;56376;53.356;-1.748;2023-09-30T00:03:35;2.92;;;1.35;;
69256;SDS011;56376;53.356;-1.748;2023-09-30T00:06:01;2.25;;;1.20;;
69256;SDS011;56376;53.356;-1.748;2023-09-30T00:08:27;2.92;;;1.42;;
69256;SDS011;56376;53.356;-1.748;2023-09-30T00:10:53;4.63;;;1.55;;
69256;SDS011;56376;53.356;-1.748;2023-09-30T00:13:19;2.05;;;1.50;;
69256;SDS011;56376;53.356;-1.748;2023-09-30T00:15:45;2.28;;;1.58;;
69256;SDS011;56376;53.356;-1.748;2023-09-30T00:18:11;2.25;;;1.17;;
69256;SDS011;56376;53.356;-1.748;2023-09-30T00:20:38;2.40;;;1.40;;
69256;SDS011;56376;53.356;-1.748;2023-09-30T00:23:04;4.10;;;1.88;;
69256;SDS011;56376;53.356;-1.748;2023-09-30T00:25:31;3.03;;;1.30;;
69256;SDS011;56376;53.356;-1.748;2023-09-30T00:27:58;3.60;;;1.58;;
69256;SDS011;56376;53.356;-1.748;2023-09-30T00:30:24;2.70;;;1.60;;
69256;SDS011;56376;53.356;-1.748;2023-09-30T00:32:49;2.80;;;1.35;;
69256;SDS011;56376;53.356;-1.748;2023-09-30T00:35:15;2.85;;;1.42;;
69256;SDS011;56376;53.356;-1.748;2023-09-30T00:37:41;3.58;;;1.40;;
69256;SDS011;56376;53.356;-1.748;2023-09-30T00:40:06;2.50;;;1.38;;
69256;SDS011;56376;53.356;-1.748;2023-09-30T00:42:37;4.28;;;1.90;;
69256;SDS011;56376;53.356;-1.748;2023-09-30T00:45:06;2.78;;;1.17;;
69256;SDS011;56376;53.356;-1.748;2023-09-30T00:47:35;2.50;;;1.58;;
69256;SDS011;56376;53.356;-1.748;2023-09-30T00:50:02;2.60;;;1.00;;
69256;SDS011;56376;53.356;-1.748;2023-09-30T00:52:32;2.15;;;1.10;;
69256;SDS011;56376;53.356;-1.748;2023-09-30T00:54:58;3.97;;;1.83;;
69256;SDS011;56376;53.356;-1.748;2023-09-30T00:57:25;4.57;;;1.58;;
69256;SDS011;56376;53.356;-1.748;2023-09-30T00:59:51;3.38;;;1.52;;
69256;SDS011;56376;53.356;-1.748;2023-09-30T01:02:20;2.92;;;1.40;;
69256;SDS011;56376;53.356;-1.748;2023-09-30T01:04:47;2.28;;;1.40;;
69256;SDS011;56376;53.356;-1.748;2023-09-30T01:09:42;3.53;;;1.45;;
69256;SDS011;56376;53.356;-1.748;2023-09-30T01:12:08;2.95;;;1.50;;
69256;SDS011;56376;53.356;-1.748;2023-09-30T01:14:34;3.40;;;1.50;;
69256;SDS011;56376;53.356;-1.748;2023-09-30T01:17:01;3.08;;;1.30;;
69256;SDS011;56376;53.356;-1.748;2023-09-30T01:19:27;2.88;;;1.25;;
69256;SDS011;56376;53.356;-1.748;2023-09-30T01:24:21;2.78;;;1.35;;
69256;SDS011;56376;53.356;-1.748;2023-09-30T01:26:47;2.80;;;1.23;;
69256;SDS011;56376;53.356;-1.748;2023-09-30T01:29:13;3.72;;;1.60;;
69256;SDS011;56376;53.356;-1.748;2023-09-30T01:31:39;2.22;;;1.13;;
69256;SDS011;56376;53.356;-1.748;2023-09-30T01:34:04;4.47;;;1.88;;
69256;SDS011;56376;53.356;-1.748;2023-09-30T01:36:30;2.55;;;1.67;;
69256;SDS011;56376;53.356;-1.748;2023-09-30T01:38:57;2.75;;;1.52;;
69256;SDS011;56376;53.356;-1.748;2023-09-30T01:41:23;4.28;;;1.40;;
69256;SDS011;56376;53.356;-1.748;2023-09-30T01:43:48;3.28;;;1.70;;
69256;SDS011;56376;53.356;-1.748;2023-09-30T01:46:14;6.18;;;2.05;;
69256;SDS011;56376;53.356;-1.748;2023-09-30T01:51:24;3.17;;;1.60;;
69256;SDS011;56376;53.356;-1.748;2023-09-30T01:53:49;4.60;;;2.20;;
69256;SDS011;56376;53.356;-1.748;2023-09-30T01:56:15;3.78;;;1.35;;
69256;SDS011;56376;53.356;-1.748;2023-09-30T01:58:43;2.42;;;1.40;;
69256;SDS011;56376;53.356;-1.748;2023-09-30T02:01:08;3.33;;;1.75;;
69256;SDS011;56376;53.356;-1.748;2023-09-30T02:03:34;3.53;;;1.90;;
69256;SDS011;56376;53.356;-1.748;2023-09-30T02:05:59;2.53;;;1.67;;
69256;SDS011;56376;53.356;-1.748;2023-09-30T02:08:26;3.17;;;1.38;;
69256;SDS011;56376;53.356;-1.748;2023-09-30T02:10:51;3.20;;;1.50;;
69256;SDS011;56376;53.356;-1.748;2023-09-30T02:13:17;4.88;;;2.17;;
69256;SDS011;56376;53.356;-1.748;2023-09-30T02:15:43;2.92;;;1.27;;
69256;SDS011;56376;53.356;-1.748;2023-09-30T02:18:09;2.55;;;1.65;;
69256;SDS011;56376;53.356;-1.748;2023-09-30T02:20:35;4.18;;;1.80;;
69256;SDS011;56376;53.356;-1.748;2023-09-30T02:23:04;1.90;;;1.10;;
69256;SDS011;56376;53.356;-1.748;2023-09-30T02:25:42;3.88;;;1.55;;
69256;SDS011;56376;53.356;-1.748;2023-09-30T02:28:08;2.63;;;1.40;;
69256;SDS011;56376;53.356;-1.748;2023-09-30T02:30:34;4.68;;;1.70;;
69256;SDS011;56376;53.356;-1.748;2023-09-30T02:32:59;2.90;;;1.67;;
69256;SDS011;56376;53.356;-1.748;2023-09-30T02:35:25;2.47;;;1.50;;
69256;SDS011;56376;53.356;-1.748;2023-09-30T02:37:51;3.00;;;1.38;;
69256;SDS011;56376;53.356;-1.748;2023-09-30T02:40:17;3.45;;;1.50;;
69256;SDS011;56376;53.356;-1.748;2023-09-30T02:42:43;5.25;;;1.73;;
69256;SDS011;56376;53.356;-1.748;2023-09-30T02:45:09;2.88;;;1.40;;
69256;SDS011;56376;53.356;-1.748;2023-09-30T02:50:41;4.60;;;1.45;;
69256;SDS011;56376;53.356;-1.748;2023-09-30T02:53:09;4.43;;;1.73;;
69256;SDS011;56376;53.356;-1.748;2023-09-30T02:55:35;3.00;;;1.52;;
69256;SDS011;56376;53.356;-1.748;2023-09-30T02:58:02;6.30;;;1.73;;
69256;SDS011;56376;53.356;-1.748;2023-09-30T03:00:27;2.03;;;1.35;;
69256;SDS011;56376;53.356;-1.748;2023-09-30T03:02:57;2.20;;;1.48;;
69256;SDS011;56376;53.356;-1.748;2023-09-30T03:05:24;4.57;;;1.73;;
69256;SDS011;56376;53.356;-1.748;2023-09-30T03:07:50;4.15;;;1.58;;
69256;SDS011;56376;53.356;-1.748;2023-09-30T03:10:16;5.00;;;1.70;;
69256;SDS011;56376;53.356;-1.748;2023-09-30T03:12:52;3.28;;;1.35;;
69256;SDS011;56376;53.356;-1.748;2023-09-30T03:15:21;2.55;;;1.40;;
69256;SDS011;56376;53.356;-1.748;2023-09-30T03:20:32;2.90;;;1.50;;
69256;SDS011;56376;53.356;-1.748;2023-09-30T03:22:58;4.07;;;1.40;;
69256;SDS011;56376;53.356;-1.748;2023-09-30T03:25:24;3.42;;;1.48;;
69256;SDS011;56376;53.356;-1.748;2023-09-30T03:27:49;3.33;;;1.85;;
69256;SDS011;56376;53.356;-1.748;2023-09-30T03:30:16;3.80;;;1.70;;
69256;SDS011;56376;53.356;-1.748;2023-09-30T03:32:42;4.95;;;2.13;;
69256;SDS011;56376;53.356;-1.748;2023-09-30T03:35:08;3.42;;;1.35;;
69256;SDS011;56376;53.356;-1.748;2023-09-30T03:40:12;4.97;;;1.70;;
69256;SDS011;56376;53.356;-1.748;2023-09-30T03:42:46;4.63;;;1.60;;
69256;SDS011;56376;53.356;-1.748;2023-09-30T03:45:14;3.10;;;1.60;;
69256;SDS011;56376;53.356;-1.748;2023-09-30T03:47:41;3.22;;;1.48;;
69256;SDS011;56376;53.356;-1.748;2023-09-30T03:50:07;4.47;;;2.05;;
69256;SDS011;56376;53.356;-1.748;2023-09-30T03:52:40;3.72;;;1.60;;
69256;SDS011;56376;53.356;-1.748;2023-09-30T03:55:09;4.00;;;1.50;;
69256;SDS011;56376;53.356;-1.748;2023-09-30T03:57:38;2.95;;;1.40;;
69256;SDS011;56376;53.356;-1.748;2023-09-30T04:00:03;3.15;;;1.52;;
69256;SDS011;56376;53.356;-1.748;2023-09-30T04:02:33;3.00;;;1.63;;
69256;SDS011;56376;53.356;-1.748;2023-09-30T04:04:59;6.00;;;1.90;;
69256;SDS011;56376;53.356;-1.748;2023-09-30T04:07:29;2.67;;;1.80;;
69256;SDS011;56376;53.356;-1.748;2023-09-30T04:09:55;2.60;;;1.35;;
69256;SDS011;56376;53.356;-1.748;2023-09-30T04:12:20;2.50;;;1.52;;
69256;SDS011;56376;53.356;-1.748;2023-09-30T04:14:48;2.60;;;1.48;;
69256;SDS011;56376;53.356;-1.748;2023-09-30T04:17:14;4.53;;;1.63;;
69256;SDS011;56376;53.356;-1.748;2023-09-30T04:19:39;5.00;;;1.60;;
69256;SDS011;56376;53.356;-1.748;2023-09-30T04:22:05;2.03;;;1.35;;
69256;SDS011;56376;53.356;-1.748;2023-09-30T04:24:30;3.28;;;1.40;;
69256;SDS011;56376;53.356;-1.748;2023-09-30T04:26:56;3.53;;;1.65;;
69256;SDS011;56376;53.356;-1.748;2023-09-30T04:29:27;3.58;;;1.75;;
69256;SDS011;56376;53.356;-1.748;2023-09-30T04:31:52;2.90;;;1.40;;
69256;SDS011;56376;53.356;-1.748;2023-09-30T04:34:17;2.30;;;1.27;;
69256;SDS011;56376;53.356;-1.748;2023-09-30T04:36:43;4.57;;;1.63;;
69256;SDS011;56376;53.356;-1.748;2023-09-30T04:39:10;3.75;;;1.20;;
69256;SDS011;56376;53.356;-1.748;2023-09-30T04:41:37;3.42;;;1.60;;
69256;SDS011;56376;53.356;-1.748;2023-09-30T04:44:06;3.83;;;1.33;;
69256;SDS011;56376;53.356;-1.748;2023-09-30T04:46:32;2.08;;;1.60;;
69256;SDS011;56376;53.356;-1.748;2023-09-30T04:48:57;2.22;;;1.35;;
69256;SDS011;56376;53.356;-1.748;2023-09-30T04:51:22;2.25;;;1.55;;
69256;SDS011;56376;53.356;-1.748;2023-09-30T04:53:50;5.18;;;1.40;;
69256;SDS011;56376;53.356;-1.748;2023-09-30T04:56:16;3.58;;;1.48;;
69256;SDS011;56376;53.356;-1.748;2023-09-30T04:58:41;3.58;;;1.27;;
69256;SDS011;56376;53.356;-1.748;2023-09-30T05:01:07;2.70;;;1.40;;
69256;SDS011;56376;53.356;-1.748;2023-09-30T05:03:33;3.38;;;1.50;;
69256;SDS011;56376;53.356;-1.748;2023-09-30T05:06:00;4.22;;;1.40;;
69256;SDS011;56376;53.356;-1.748;2023-09-30T05:08:27;3.45;;;1.50;;
69256;SDS011;56376;53.356;-1.748;2023-09-30T05:10:53;2.80;;;1.80;;
69256;SDS011;56376;53.356;-1.748;2023-09-30T05:13:20;3.10;;;2.20;;
69256;SDS011;56376;53.356;-1.748;2023-09-30T05:15:46;3.83;;;1.50;;
69256;SDS011;56376;53.356;-1.748;2023-09-30T05:18:11;4.03;;;1.75;;
69256;SDS011;56376;53.356;-1.748;2023-09-30T05:20:37;2.92;;;1.50;;
69256;SDS011;56376;53.356;-1.748;2023-09-30T05:23:03;3.83;;;1.40;;
69256;SDS011;56376;53.356;-1.748;2023-09-30T05:25:31;3.08;;;1.40;;
69256;SDS011;56376;53.356;-1.748;2023-09-30T05:27:57;2.22;;;1.40;;
69256;SDS011;56376;53.356;-1.748;2023-09-30T05:30:22;2.80;;;1.30;;
69256;SDS011;56376;53.356;-1.748;2023-09-30T05:32:48;3.67;;;1.40;;
69256;SDS011;56376;53.356;-1.748;2023-09-30T05:35:13;4.43;;;1.65;;
69256;SDS011;56376;53.356;-1.748;2023-09-30T05:40:28;2.17;;;1.52;;
69256;SDS011;56376;53.356;-1.748;2023-09-30T05:42:56;6.78;;;2.47;;
69256;SDS011;56376;53.356;-1.748;2023-09-30T05:45:23;2.70;;;1.30;;
69256;SDS011;56376;53.356;-1.748;2023-09-30T05:47:50;2.55;;;1.30;;
69256;SDS011;56376;53.356;-1.748;2023-09-30T05:50:17;2.97;;;1.40;;
69256;SDS011;56376;53.356;-1.748;2023-09-30T05:52:48;2.75;;;1.30;;
69256;SDS011;56376;53.356;-1.748;2023-09-30T05:55:15;2.45;;;1.45;;
69256;SDS011;56376;53.356;-1.748;2023-09-30T06:00:25;4.35;;;2.38;;
69256;SDS011;56376;53.356;-1.748;2023-09-30T06:02:55;1.73;;;1.33;;
69256;SDS011;56376;53.356;-1.748;2023-09-30T06:05:22;3.17;;;1.58;;
69256;SDS011;56376;53.356;-1.748;2023-09-30T06:10:39;2.17;;;1.20;;
69256;SDS011;56376;53.356;-1.748;2023-09-30T06:13:08;3.95;;;1.58;;
69256;SDS011;56376;53.356;-1.748;2023-09-30T06:15:36;2.67;;;1.38;;
69256;SDS011;56376;53.356;-1.748;2023-09-30T06:18:07;5.00;;;1.42;;
69256;SDS011;56376;53.356;-1.748;2023-09-30T06:20:33;4.07;;;1.85;;
69256;SDS011;56376;53.356;-1.748;2023-09-30T06:22:58;1.88;;;1.30;;
69256;SDS011;56376;53.356;-1.748;2023-09-30T06:25:27;2.33;;;1.42;;
69256;SDS011;56376;53.356;-1.748;2023-09-30T06:27:54;2.30;;;1.30;;
69256;SDS011;56376;53.356;-1.748;2023-09-30T06:30:20;3.70;;;1.40;;
69256;SDS011;56376;53.356;-1.748;2023-09-30T06:32:46;5.72;;;1.88;;
69256;SDS011;56376;53.356;-1.748;2023-09-30T06:35:12;2.92;;;1.25;;
69256;SDS011;56376;53.356;-1.748;2023-09-30T06:37:39;3.05;;;1.35;;
69256;SDS011;56376;53.356;-1.748;2023-09-30T06:40:06;2.80;;;1.08;;
69256;SDS011;56376;53.356;-1.748;2023-09-30T06:42:33;2.40;;;1.30;;
69256;SDS011;56376;53.356;-1.748;2023-09-30T06:45:00;1.42;;;1.05;;
69256;SDS011;56376;53.356;-1.748;2023-09-30T06:47:28;1.88;;;1.30;;
69256;SDS011;56376;53.356;-1.748;2023-09-30T06:49:55;2.45;;;1.40;;
69256;SDS011;56376;53.356;-1.748;2023-09-30T06:52:21;2.65;;;1.27;;
69256;SDS011;56376;53.356;-1.748;2023-09-30T06:54:47;2.72;;;1.10;;
69256;SDS011;56376;53.356;-1.748;2023-09-30T06:57:13;2.88;;;1.25;;
69256;SDS011;56376;53.356;-1.748;2023-09-30T06:59:39;2.13;;;1.40;;
69256;SDS011;56376;53.356;-1.748;2023-09-30T07:02:04;1.90;;;1.30;;
69256;SDS011;56376;53.356;-1.748;2023-09-30T07:04:30;1.70;;;1.20;;
69256;SDS011;56376;53.356;-1.748;2023-09-30T07:06:55;2.03;;;1.23;;
69256;SDS011;56376;53.356;-1.748;2023-09-30T07:09:21;4.05;;;1.60;;
69256;SDS011;56376;53.356;-1.748;2023-09-30T07:11:46;3.20;;;1.30;;
69256;SDS011;56376;53.356;-1.748;2023-09-30T07:14:14;2.58;;;1.38;;
69256;SDS011;56376;53.356;-1.748;2023-09-30T07:16:39;3.03;;;1.85;;
69256;SDS011;56376;53.356;-1.748;2023-09-30T07:19:06;2.35;;;1.55;;
69256;SDS011;56376;53.356;-1.748;2023-09-30T07:21:32;2.83;;;1.40;;
69256;SDS011;56376;53.356;-1.748;2023-09-30T07:23:57;2.70;;;1.38;;
69256;SDS011;56376;53.356;-1.748;2023-09-30T07:26:25;4.15;;;1.83;;
69256;SDS011;56376;53.356;-1.748;2023-09-30T07:28:53;3.22;;;1.70;;
69256;SDS011;56376;53.356;-1.748;2023-09-30T07:31:19;3.33;;;1.40;;
69256;SDS011;56376;53.356;-1.748;2023-09-30T07:33:45;3.08;;;1.63;;
69256;SDS011;56376;53.356;-1.748;2023-09-30T07:36:10;3.95;;;1.67;;
69256;SDS011;56376;53.356;-1.748;2023-09-30T07:38:37;2.72;;;1.50;;
69256;SDS011;56376;53.356;-1.748;2023-09-30T07:41:02;3.35;;;2.03;;
69256;SDS011;56376;53.356;-1.748;2023-09-30T07:43:28;2.92;;;1.80;;
69256;SDS011;56376;53.356;-1.748;2023-09-30T07:45:54;4.20;;;1.90;;
69256;SDS011;56376;53.356;-1.748;2023-09-30T07:48:20;3.22;;;1.45;;
69256;SDS011;56376;53.356;-1.748;2023-09-30T07:50:46;3.75;;;2.28;;
69256;SDS011;56376;53.356;-1.748;2023-09-30T07:53:12;2.40;;;1.58;;
69256;SDS011;56376;53.356;-1.748;2023-09-30T07:55:37;3.25;;;1.90;;
69256;SDS011;56376;53.356;-1.748;2023-09-30T07:58:06;3.75;;;1.98;;
69256;SDS011;56376;53.356;-1.748;2023-09-30T08:00:33;3.80;;;1.98;;
69256;SDS011;56376;53.356;-1.748;2023-09-30T08:02:58;5.22;;;2.42;;
69256;SDS011;56376;53.356;-1.748;2023-09-30T08:05:26;5.97;;;2.60;;
69256;SDS011;56376;53.356;-1.748;2023-09-30T08:07:51;3.95;;;2.17;;
69256;SDS011;56376;53.356;-1.748;2023-09-30T08:10:17;5.57;;;2.40;;
69256;SDS011;56376;53.356;-1.748;2023-09-30T08:12:42;6.65;;;2.83;;
69256;SDS011;56376;53.356;-1.748;2023-09-30T08:15:11;3.65;;;2.40;;
69256;SDS011;56376;53.356;-1.748;2023-09-30T08:17:38;6.43;;;2.30;;
69256;SDS011;56376;53.356;-1.748;2023-09-30T08:20:03;4.32;;;2.60;;
69256;SDS011;56376;53.356;-1.748;2023-09-30T08:22:29;3.72;;;2.50;;
69256;SDS011;56376;53.356;-1.748;2023-09-30T08:24:55;5.70;;;2.65;;
69256;SDS011;56376;53.356;-1.748;2023-09-30T08:27:21;8.07;;;2.67;;
69256;SDS011;56376;53.356;-1.748;2023-09-30T08:29:48;4.85;;;2.88;;
69256;SDS011;56376;53.356;-1.748;2023-09-30T08:32:14;6.78;;;2.72;;
69256;SDS011;56376;53.356;-1.748;2023-09-30T08:34:39;7.38;;;3.13;;
69256;SDS011;56376;53.356;-1.748;2023-09-30T08:37:05;5.45;;;2.72;;
69256;SDS011;56376;53.356;-1.748;2023-09-30T08:39:30;4.40;;;2.78;;
69256;SDS011;56376;53.356;-1.748;2023-09-30T08:41:56;6.40;;;2.72;;
69256;SDS011;56376;53.356;-1.748;2023-09-30T08:44:21;7.03;;;2.65;;
69256;SDS011;56376;53.356;-1.748;2023-09-30T08:46:47;4.47;;;2.30;;
69256;SDS011;56376;53.356;-1.748;2023-09-30T08:49:15;4.50;;;2.88;;
69256;SDS011;56376;53.356;-1.748;2023-09-30T08:51:40;5.55;;;2.70;;
69256;SDS011;56376;53.356;-1.748;2023-09-30T08:54:06;4.90;;;3.05;;
69256;SDS011;56376;53.356;-1.748;2023-09-30T08:56:32;8.18;;;3.50;;
69256;SDS011;56376;53.356;-1.748;2023-09-30T08:59:02;7.95;;;3.22;;
69256;SDS011;56376;53.356;-1.748;2023-09-30T09:01:29;4.25;;;2.20;;
69256;SDS011;56376;53.356;-1.748;2023-09-30T09:03:56;3.67;;;2.20;;
69256;SDS011;56376;53.356;-1.748;2023-09-30T09:06:25;7.32;;;3.30;;
69256;SDS011;56376;53.356;-1.748;2023-09-30T09:08:54;5.90;;;2.92;;
69256;SDS011;56376;53.356;-1.748;2023-09-30T09:11:37;4.05;;;2.80;;
69256;SDS011;56376;53.356;-1.748;2023-09-30T09:14:02;3.58;;;2.20;;
69256;SDS011;56376;53.356;-1.748;2023-09-30T09:16:28;6.10;;;3.08;;
69256;SDS011;56376;53.356;-1.748;2023-09-30T09:18:56;5.43;;;2.50;;
69256;SDS011;56376;53.356;-1.748;2023-09-30T09:21:21;3.95;;;2.50;;
69256;SDS011;56376;53.356;-1.748;2023-09-30T09:23:48;4.65;;;2.92;;
69256;SDS011;56376;53.356;-1.748;2023-09-30T09:26:26;3.67;;;2.70;;
69256;SDS011;56376;53.356;-1.748;2023-09-30T09:29:01;3.58;;;2.60;;
69256;SDS011;56376;53.356;-1.748;2023-09-30T09:31:29;3.35;;;2.60;;
69256;SDS011;56376;53.356;-1.748;2023-09-30T09:33:56;4.35;;;2.17;;
69256;SDS011;56376;53.356;-1.748;2023-09-30T09:36:37;6.47;;;2.38;;
69256;SDS011;56376;53.356;-1.748;2023-09-30T09:39:05;4.03;;;2.58;;
69256;SDS011;56376;53.356;-1.748;2023-09-30T09:41:31;5.47;;;2.55;;
69256;SDS011;56376;53.356;-1.748;2023-09-30T09:43:56;4.15;;;2.13;;
69256;SDS011;56376;53.356;-1.748;2023-09-30T09:46:24;3.33;;;2.28;;
69256;SDS011;56376;53.356;-1.748;2023-09-30T09:51:36;4.63;;;2.15;;
69256;SDS011;56376;53.356;-1.748;2023-09-30T09:54:03;4.30;;;2.33;;
69256;SDS011;56376;53.356;-1.748;2023-09-30T09:56:32;6.40;;;2.30;;
69256;SDS011;56376;53.356;-1.748;2023-09-30T09:59:01;3.67;;;2.33;;
69256;SDS011;56376;53.356;-1.748;2023-09-30T10:01:30;3.55;;;2.10;;
69256;SDS011;56376;53.356;-1.748;2023-09-30T10:03:56;4.60;;;1.92;;
69256;SDS011;56376;53.356;-1.748;2023-09-30T10:06:21;3.78;;;2.25;;
69256;SDS011;56376;53.356;-1.748;2023-09-30T10:08:48;4.00;;;1.90;;
69256;SDS011;56376;53.356;-1.748;2023-09-30T10:11:18;3.78;;;2.17;;
69256;SDS011;56376;53.356;-1.748;2023-09-30T10:13:51;2.42;;;1.88;;
69256;SDS011;56376;53.356;-1.748;2023-09-30T10:19:13;2.92;;;1.60;;
69256;SDS011;56376;53.356;-1.748;2023-09-30T10:21:39;5.72;;;1.55;;
69256;SDS011;56376;53.356;-1.748;2023-09-30T10:32:22;5.25;;;2.17;;
69256;SDS011;56376;53.356;-1.748;2023-09-30T10:34:48;3.33;;;2.17;;
69256;SDS011;56376;53.356;-1.748;2023-09-30T10:37:22;4.55;;;2.20;;
69256;SDS011;56376;53.356;-1.748;2023-09-30T10:50:50;3.42;;;1.85;;
69256;SDS011;56376;53.356;-1.748;2023-09-30T10:53:22;4.38;;;2.13;;
69256;SDS011;56376;53.356;-1.748;2023-09-30T10:55:53;2.25;;;1.90;;
69256;SDS011;56376;53.356;-1.748;2023-09-30T10:58:21;3.30;;;1.98;;
69256;SDS011;56376;53.356;-1.748;2023-09-30T11:00:53;5.25;;;1.90;;
69256;SDS011;56376;53.356;-1.748;2023-09-30T11:03:19;2.92;;;1.80;;
69256;SDS011;56376;53.356;-1.748;2023-09-30T11:05:49;3.33;;;1.90;;
69256;SDS011;56376;53.356;-1.748;2023-09-30T11:08:16;3.53;;;1.75;;
69256;SDS011;56376;53.356;-1.748;2023-09-30T11:10:48;2.83;;;1.77;;
69256;SDS011;56376;53.356;-1.748;2023-09-30T11:13:15;2.58;;;1.98;;
69256;SDS011;56376;53.356;-1.748;2023-09-30T11:15:41;5.05;;;2.00;;
69256;SDS011;56376;53.356;-1.748;2023-09-30T11:21:11;3.42;;;2.00;;
69256;SDS011;56376;53.356;-1.748;2023-09-30T11:23:38;3.28;;;2.10;;
69256;SDS011;56376;53.356;-1.748;2023-09-30T11:26:05;3.83;;;2.20;;
69256;SDS011;56376;53.356;-1.748;2023-09-30T11:28:39;3.67;;;2.20;;
69256;SDS011;56376;53.356;-1.748;2023-09-30T11:31:10;3.85;;;1.88;;
69256;SDS011;56376;53.356;-1.748;2023-09-30T11:33:49;4.25;;;1.80;;
69256;SDS011;56376;53.356;-1.748;2023-09-30T11:36:17;5.65;;;2.10;;
69256;SDS011;56376;53.356;-1.748;2023-09-30T11:38:45;4.28;;;2.00;;
69256;SDS011;56376;53.356;-1.748;2023-09-30T11:41:14;4.00;;;1.95;;
69256;SDS011;56376;53.356;-1.748;2023-09-30T11:46:30;3.10;;;1.80;;
69256;SDS011;56376;53.356;-1.748;2023-09-30T11:49:01;3.13;;;1.65;;
69256;SDS011;56376;53.356;-1.748;2023-09-30T11:51:28;2.85;;;1.60;;
69256;SDS011;56376;53.356;-1.748;2023-09-30T11:53:55;2.42;;;1.50;;
69256;SDS011;56376;53.356;-1.748;2023-09-30T11:56:22;2.20;;;1.40;;
69256;SDS011;56376;53.356;-1.748;2023-09-30T12:04:03;3.30;;;1.55;;
69256;SDS011;56376;53.356;-1.748;2023-09-30T12:06:28;2.40;;;1.40;;
69256;SDS011;56376;53.356;-1.748;2023-09-30T12:08:54;1.40;;;1.10;;
69256;SDS011;56376;53.356;-1.748;2023-09-30T12:11:20;3.63;;;1.42;;
69256;SDS011;56376;53.356;-1.748;2023-09-30T12:13:49;3.38;;;1.98;;
69256;SDS011;56376;53.356;-1.748;2023-09-30T12:16:15;3.28;;;1.55;;
69256;SDS011;56376;53.356;-1.748;2023-09-30T12:18:41;4.90;;;2.22;;
69256;SDS011;56376;53.356;-1.748;2023-09-30T12:21:08;4.65;;;1.90;;
69256;SDS011;56376;53.356;-1.748;2023-09-30T12:23:35;5.57;;;2.10;;
69256;SDS011;56376;53.356;-1.748;2023-09-30T12:26:01;4.57;;;2.40;;
69256;SDS011;56376;53.356;-1.748;2023-09-30T12:28:30;5.68;;;2.30;;
69256;SDS011;56376;53.356;-1.748;2023-09-30T12:30:59;4.35;;;2.67;;
69256;SDS011;56376;53.356;-1.748;2023-09-30T12:33:29;5.40;;;2.35;;
69256;SDS011;56376;53.356;-1.748;2023-09-30T12:35:55;3.33;;;1.80;;
69256;SDS011;56376;53.356;-1.748;2023-09-30T12:38:22;5.25;;;2.13;;
69256;SDS011;56376;53.356;-1.748;2023-09-30T12:40:47;3.42;;;1.70;;
69256;SDS011;56376;53.356;-1.748;2023-09-30T12:43:13;4.13;;;1.85;;
69256;SDS011;56376;53.356;-1.748;2023-09-30T12:45:39;3.53;;;1.77;;
69256;SDS011;56376;53.356;-1.748;2023-09-30T12:48:04;3.53;;;1.90;;
69256;SDS011;56376;53.356;-1.748;2023-09-30T12:50:30;3.58;;;1.70;;
69256;SDS011;56376;53.356;-1.748;2023-09-30T12:52:55;4.18;;;1.67;;
69256;SDS011;56376;53.356;-1.748;2023-09-30T12:55:21;4.45;;;2.10;;
69256;SDS011;56376;53.356;-1.748;2023-09-30T12:57:47;3.28;;;1.80;;
69256;SDS011;56376;53.356;-1.748;2023-09-30T13:00:13;2.38;;;1.70;;
69256;SDS011;56376;53.356;-1.748;2023-09-30T13:02:40;2.60;;;1.80;;
69256;SDS011;56376;53.356;-1.748;2023-09-30T13:05:06;3.13;;;2.05;;
69256;SDS011;56376;53.356;-1.748;2023-09-30T13:10:20;3.55;;;2.00;;
69256;SDS011;56376;53.356;-1.748;2023-09-30T13:12:47;3.05;;;1.70;;
69256;SDS011;56376;53.356;-1.748;2023-09-30T13:15:14;3.47;;;1.70;;
69256;SDS011;56376;53.356;-1.748;2023-09-30T13:17:40;2.95;;;1.60;;
69256;SDS011;56376;53.356;-1.748;2023-09-30T13:20:05;4.32;;;2.28;;
69256;SDS011;56376;53.356;-1.748;2023-09-30T13:22:33;5.85;;;1.80;;
69256;SDS011;56376;53.356;-1.748;2023-09-30T13:25:00;3.45;;;2.13;;
69256;SDS011;56376;53.356;-1.748;2023-09-30T13:27:28;2.55;;;1.63;;
69256;SDS011;56376;53.356;-1.748;2023-09-30T13:29:53;5.25;;;2.40;;
69256;SDS011;56376;53.356;-1.748;2023-09-30T13:32:22;2.90;;;2.15;;
69256;SDS011;56376;53.356;-1.748;2023-09-30T13:34:47;3.45;;;2.10;;
69256;SDS011;56376;53.356;-1.748;2023-09-30T13:37:14;4.40;;;2.42;;
69256;SDS011;56376;53.356;-1.748;2023-09-30T13:39:40;5.32;;;2.90;;
69256;SDS011;56376;53.356;-1.748;2023-09-30T13:42:05;3.35;;;2.28;;
69256;SDS011;56376;53.356;-1.748;2023-09-30T13:44:32;4.28;;;2.10;;
69256;SDS011;56376;53.356;-1.748;2023-09-30T13:46:57;3.83;;;2.25;;
69256;SDS011;56376;53.356;-1.748;2023-09-30T13:49:23;3.42;;;2.03;;
69256;SDS011;56376;53.356;-1.748;2023-09-30T13:51:48;5.97;;;2.67;;
69256;SDS011;56376;53.356;-1.748;2023-09-30T13:54:13;4.53;;;2.08;;
69256;SDS011;56376;53.356;-1.748;2023-09-30T13:56:40;2.50;;;2.25;;
69256;SDS011;56376;53.356;-1.748;2023-09-30T13:59:05;4.22;;;2.30;;
69256;SDS011;56376;53.356;-1.748;2023-09-30T14:01:30;6.20;;;2.65;;
69256;SDS011;56376;53.356;-1.748;2023-09-30T14:03:56;6.80;;;2.85;;
69256;SDS011;56376;53.356;-1.748;2023-09-30T14:06:22;5.13;;;2.50;;
69256;SDS011;56376;53.356;-1.748;2023-09-30T14:08:49;4.43;;;2.40;;
69256;SDS011;56376;53.356;-1.748;2023-09-30T14:11:15;7.45;;;2.65;;
69256;SDS011;56376;53.356;-1.748;2023-09-30T14:13:41;5.15;;;2.03;;
69256;SDS011;56376;53.356;-1.748;2023-09-30T14:16:07;3.53;;;1.85;;
69256;SDS011;56376;53.356;-1.748;2023-09-30T14:18:33;3.90;;;2.10;;
69256;SDS011;56376;53.356;-1.748;2023-09-30T14:20:58;4.32;;;2.30;;
69256;SDS011;56376;53.356;-1.748;2023-09-30T14:23:24;4.35;;;2.58;;
69256;SDS011;56376;53.356;-1.748;2023-09-30T14:25:50;5.57;;;2.67;;
69256;SDS011;56376;53.356;-1.748;2023-09-30T14:28:20;3.95;;;2.63;;
69256;SDS011;56376;53.356;-1.748;2023-09-30T14:30:45;4.97;;;3.08;;
69256;SDS011;56376;53.356;-1.748;2023-09-30T14:33:10;4.68;;;2.75;;
69256;SDS011;56376;53.356;-1.748;2023-09-30T14:35:36;6.57;;;3.75;;
69256;SDS011;56376;53.356;-1.748;2023-09-30T14:38:04;4.80;;;3.50;;
69256;SDS011;56376;53.356;-1.748;2023-09-30T14:40:30;5.45;;;3.13;;
69256;SDS011;56376;53.356;-1.748;2023-09-30T14:43:00;4.90;;;2.95;;
69256;SDS011;56376;53.356;-1.748;2023-09-30T14:45:30;4.80;;;2.88;;
69256;SDS011;56376;53.356;-1.748;2023-09-30T14:47:57;5.68;;;3.45;;
69256;SDS011;56376;53.356;-1.748;2023-09-30T14:50:22;6.60;;;4.25;;
69256;SDS011;56376;53.356;-1.748;2023-09-30T14:52:47;6.82;;;3.63;;
69256;SDS011;56376;53.356;-1.748;2023-09-30T14:55:14;5.03;;;3.65;;
69256;SDS011;56376;53.356;-1.748;2023-09-30T14:57:43;6.40;;;3.28;;
69256;SDS011;56376;53.356;-1.748;2023-09-30T15:00:08;4.45;;;3.05;;
69256;SDS011;56376;53.356;-1.748;2023-09-30T15:02:36;4.93;;;3.22;;
69256;SDS011;56376;53.356;-1.748;2023-09-30T15:05:03;4.57;;;2.53;;
69256;SDS011;56376;53.356;-1.748;2023-09-30T15:07:30;4.65;;;2.92;;
69256;SDS011;56376;53.356;-1.748;2023-09-30T15:09:55;4.55;;;3.38;;
69256;SDS011;56376;53.356;-1.748;2023-09-30T15:12:21;7.53;;;4.38;;
69256;SDS011;56376;53.356;-1.748;2023-09-30T15:14:46;12.15;;;8.70;;
69256;SDS011;56376;53.356;-1.748;2023-09-30T15:17:12;19.85;;;11.57;;
69256;SDS011;56376;53.356;-1.748;2023-09-30T15:19:37;21.00;;;11.73;;
69256;SDS011;56376;53.356;-1.748;2023-09-30T15:22:03;14.05;;;8.88;;
69256;SDS011;56376;53.356;-1.748;2023-09-30T15:24:29;10.98;;;7.22;;
69256;SDS011;56376;53.356;-1.748;2023-09-30T15:26:54;8.23;;;4.60;;
69256;SDS011;56376;53.356;-1.748;2023-09-30T15:29:20;6.80;;;3.70;;
69256;SDS011;56376;53.356;-1.748;2023-09-30T15:31:45;6.03;;;3.40;;
69256;SDS011;56376;53.356;-1.748;2023-09-30T15:34:11;5.13;;;2.72;;